sensor_id;sensor_type;location;lat;lon;timestamp;P1;durP1;ratioP1;P2;durP2;ratioP2
16199;SDS011;8207;52.494;4.654;2023-03-07T00:01:04;10.77;;;2.63;;
16199;SDS011;8207;52.494;4.654;2023-03-07T00:03:31;14.17;;;2.30;;
16199;SDS011;8207;52.494;4.654;2023-03-07T00:06:01;12.43;;;2.23;;
16199;SDS011;8207;52.494;4.654;2023-03-07T00:08:31;13.37;;;2.67;;
16199;SDS011;8207;52.494;4.654;2023-03-07T00:10:59;10.23;;;2.33;;
16199;SDS011;8207;52.494;4.654;2023-03-07T00:13:28;8.10;;;2.20;;
16199;SDS011;8207;52.494;4.654;2023-03-07T00:15:59;7.60;;;1.50;;
16199;SDS011;8207;52.494;4.654;2023-03-07T00:18:27;9.67;;;2.90;;
16199;SDS011;8207;52.494;4.654;2023-03-07T00:20:57;7.10;;;2.57;;
16199;SDS011;8207;52.494;4.654;2023-03-07T00:23:25;12.23;;;2.10;;
16199;SDS011;8207;52.494;4.654;2023-03-07T00:25:57;8.60;;;1.93;;
16199;SDS011;8207;52.494;4.654;2023-03-07T00:28:25;9.70;;;2.50;;
16199;SDS011;8207;52.494;4.654;2023-03-07T00:30:52;9.20;;;1.67;;
16199;SDS011;8207;52.494;4.654;2023-03-07T00:33:19;5.77;;;1.10;;
16199;SDS011;8207;52.494;4.654;2023-03-07T00:35:53;6.73;;;1.57;;
16199;SDS011;8207;52.494;4.654;2023-03-07T00:38:21;10.20;;;2.10;;
16199;SDS011;8207;52.494;4.654;2023-03-07T00:40:54;10.77;;;2.70;;
16199;SDS011;8207;52.494;4.654;2023-03-07T00:43:24;8.67;;;1.60;;
16199;SDS011;8207;52.494;4.654;2023-03-07T00:45:51;11.17;;;2.10;;
16199;SDS011;8207;52.494;4.654;2023-03-07T00:48:18;7.80;;;2.30;;
16199;SDS011;8207;52.494;4.654;2023-03-07T00:50:47;7.63;;;1.80;;
16199;SDS011;8207;52.494;4.654;2023-03-07T00:53:14;11.87;;;2.47;;
16199;SDS011;8207;52.494;4.654;2023-03-07T00:55:42;11.53;;;1.83;;
16199;SDS011;8207;52.494;4.654;2023-03-07T00:58:22;10.00;;;1.90;;
16199;SDS011;8207;52.494;4.654;2023-03-07T01:00:51;9.83;;;1.50;;
16199;SDS011;8207;52.494;4.654;2023-03-07T01:03:19;8.60;;;1.40;;
16199;SDS011;8207;52.494;4.654;2023-03-07T01:05:46;8.47;;;1.93;;
16199;SDS011;8207;52.494;4.654;2023-03-07T01:08:14;12.77;;;1.77;;
16199;SDS011;8207;52.494;4.654;2023-03-07T01:10:41;6.37;;;1.33;;
16199;SDS011;8207;52.494;4.654;2023-03-07T01:13:09;16.43;;;2.13;;
16199;SDS011;8207;52.494;4.654;2023-03-07T01:15:37;8.70;;;1.57;;
16199;SDS011;8207;52.494;4.654;2023-03-07T01:18:04;10.20;;;1.93;;
16199;SDS011;8207;52.494;4.654;2023-03-07T01:20:33;4.53;;;1.00;;
16199;SDS011;8207;52.494;4.654;2023-03-07T01:23:01;7.33;;;1.87;;
16199;SDS011;8207;52.494;4.654;2023-03-07T01:25:28;11.33;;;2.43;;
16199;SDS011;8207;52.494;4.654;2023-03-07T01:27:56;6.57;;;1.70;;
16199;SDS011;8207;52.494;4.654;2023-03-07T01:30:23;8.83;;;2.20;;
16199;SDS011;8207;52.494;4.654;2023-03-07T01:32:54;9.17;;;2.13;;
16199;SDS011;8207;52.494;4.654;2023-03-07T01:35:21;7.00;;;1.37;;
16199;SDS011;8207;52.494;4.654;2023-03-07T01:37:49;6.97;;;1.50;;
16199;SDS011;8207;52.494;4.654;2023-03-07T01:40:16;8.53;;;1.57;;
16199;SDS011;8207;52.494;4.654;2023-03-07T01:42:44;7.17;;;1.50;;
16199;SDS011;8207;52.494;4.654;2023-03-07T01:48:17;11.87;;;2.87;;
16199;SDS011;8207;52.494;4.654;2023-03-07T01:50:44;12.37;;;2.60;;
16199;SDS011;8207;52.494;4.654;2023-03-07T01:53:11;10.27;;;1.67;;
16199;SDS011;8207;52.494;4.654;2023-03-07T01:55:39;9.47;;;1.83;;
16199;SDS011;8207;52.494;4.654;2023-03-07T01:58:08;6.40;;;1.93;;
16199;SDS011;8207;52.494;4.654;2023-03-07T02:00:37;10.20;;;1.57;;
16199;SDS011;8207;52.494;4.654;2023-03-07T02:03:06;8.93;;;1.87;;
16199;SDS011;8207;52.494;4.654;2023-03-07T02:05:39;8.97;;;1.30;;
16199;SDS011;8207;52.494;4.654;2023-03-07T02:08:10;6.83;;;1.33;;
16199;SDS011;8207;52.494;4.654;2023-03-07T02:10:40;5.00;;;1.53;;
16199;SDS011;8207;52.494;4.654;2023-03-07T02:13:08;7.70;;;1.90;;
16199;SDS011;8207;52.494;4.654;2023-03-07T02:15:35;6.83;;;1.40;;
16199;SDS011;8207;52.494;4.654;2023-03-07T02:18:03;4.53;;;1.77;;
16199;SDS011;8207;52.494;4.654;2023-03-07T02:20:33;4.60;;;1.70;;
16199;SDS011;8207;52.494;4.654;2023-03-07T02:23:09;9.03;;;1.90;;
16199;SDS011;8207;52.494;4.654;2023-03-07T02:25:41;7.87;;;1.13;;
16199;SDS011;8207;52.494;4.654;2023-03-07T02:28:15;5.00;;;1.63;;
16199;SDS011;8207;52.494;4.654;2023-03-07T02:30:53;4.67;;;1.03;;
16199;SDS011;8207;52.494;4.654;2023-03-07T02:33:21;3.70;;;0.93;;
16199;SDS011;8207;52.494;4.654;2023-03-07T02:35:49;3.53;;;1.30;;
16199;SDS011;8207;52.494;4.654;2023-03-07T02:38:20;2.80;;;0.90;;
16199;SDS011;8207;52.494;4.654;2023-03-07T02:40:47;7.20;;;1.10;;
16199;SDS011;8207;52.494;4.654;2023-03-07T02:43:16;3.30;;;0.77;;
16199;SDS011;8207;52.494;4.654;2023-03-07T02:45:44;5.13;;;1.60;;
16199;SDS011;8207;52.494;4.654;2023-03-07T02:48:11;5.70;;;0.97;;
16199;SDS011;8207;52.494;4.654;2023-03-07T02:50:39;1.63;;;0.70;;
16199;SDS011;8207;52.494;4.654;2023-03-07T02:53:06;6.27;;;1.33;;
16199;SDS011;8207;52.494;4.654;2023-03-07T02:55:32;4.67;;;1.23;;
16199;SDS011;8207;52.494;4.654;2023-03-07T02:57:59;8.60;;;1.10;;
16199;SDS011;8207;52.494;4.654;2023-03-07T03:00:28;5.80;;;1.87;;
16199;SDS011;8207;52.494;4.654;2023-03-07T03:02:55;5.97;;;1.47;;
16199;SDS011;8207;52.494;4.654;2023-03-07T03:05:21;3.67;;;1.10;;
16199;SDS011;8207;52.494;4.654;2023-03-07T03:07:48;7.73;;;1.20;;
16199;SDS011;8207;52.494;4.654;2023-03-07T03:10:15;7.70;;;1.07;;
16199;SDS011;8207;52.494;4.654;2023-03-07T03:12:43;8.73;;;1.67;;
16199;SDS011;8207;52.494;4.654;2023-03-07T03:15:10;7.87;;;1.57;;
16199;SDS011;8207;52.494;4.654;2023-03-07T03:17:39;10.17;;;1.50;;
16199;SDS011;8207;52.494;4.654;2023-03-07T03:20:06;14.40;;;1.97;;
16199;SDS011;8207;52.494;4.654;2023-03-07T03:22:36;5.87;;;1.43;;
16199;SDS011;8207;52.494;4.654;2023-03-07T03:25:03;5.43;;;1.60;;
16199;SDS011;8207;52.494;4.654;2023-03-07T03:27:31;10.07;;;1.53;;
16199;SDS011;8207;52.494;4.654;2023-03-07T03:29:58;9.40;;;1.57;;
16199;SDS011;8207;52.494;4.654;2023-03-07T03:32:25;7.27;;;1.33;;
16199;SDS011;8207;52.494;4.654;2023-03-07T03:34:53;6.13;;;1.20;;
16199;SDS011;8207;52.494;4.654;2023-03-07T03:37:20;6.33;;;1.07;;
16199;SDS011;8207;52.494;4.654;2023-03-07T03:39:47;3.47;;;0.87;;
16199;SDS011;8207;52.494;4.654;2023-03-07T03:42:14;4.70;;;1.00;;
16199;SDS011;8207;52.494;4.654;2023-03-07T03:44:41;4.60;;;1.13;;
16199;SDS011;8207;52.494;4.654;2023-03-07T03:47:08;3.77;;;1.03;;
16199;SDS011;8207;52.494;4.654;2023-03-07T03:49:35;8.07;;;1.00;;
16199;SDS011;8207;52.494;4.654;2023-03-07T03:52:03;3.40;;;1.10;;
16199;SDS011;8207;52.494;4.654;2023-03-07T03:54:30;6.03;;;1.43;;
16199;SDS011;8207;52.494;4.654;2023-03-07T03:56:58;5.47;;;1.47;;
16199;SDS011;8207;52.494;4.654;2023-03-07T03:59:24;7.33;;;1.83;;
16199;SDS011;8207;52.494;4.654;2023-03-07T04:01:52;9.40;;;2.07;;
16199;SDS011;8207;52.494;4.654;2023-03-07T04:04:19;6.03;;;1.60;;
16199;SDS011;8207;52.494;4.654;2023-03-07T04:06:46;5.07;;;1.50;;
16199;SDS011;8207;52.494;4.654;2023-03-07T04:09:14;11.23;;;2.53;;
16199;SDS011;8207;52.494;4.654;2023-03-07T04:11:41;7.80;;;2.00;;
16199;SDS011;8207;52.494;4.654;2023-03-07T04:14:08;10.97;;;2.40;;
16199;SDS011;8207;52.494;4.654;2023-03-07T04:16:35;7.10;;;2.13;;
16199;SDS011;8207;52.494;4.654;2023-03-07T04:19:02;10.57;;;1.70;;
16199;SDS011;8207;52.494;4.654;2023-03-07T04:21:29;6.13;;;1.70;;
16199;SDS011;8207;52.494;4.654;2023-03-07T04:23:56;7.57;;;1.50;;
16199;SDS011;8207;52.494;4.654;2023-03-07T04:26:24;9.87;;;1.60;;
16199;SDS011;8207;52.494;4.654;2023-03-07T04:28:51;3.03;;;1.10;;
16199;SDS011;8207;52.494;4.654;2023-03-07T04:31:18;4.80;;;1.33;;
16199;SDS011;8207;52.494;4.654;2023-03-07T04:33:47;2.83;;;1.60;;
16199;SDS011;8207;52.494;4.654;2023-03-07T04:36:15;4.90;;;1.33;;
16199;SDS011;8207;52.494;4.654;2023-03-07T04:38:42;7.03;;;1.23;;
16199;SDS011;8207;52.494;4.654;2023-03-07T04:41:10;6.47;;;0.90;;
16199;SDS011;8207;52.494;4.654;2023-03-07T04:43:40;5.43;;;0.87;;
16199;SDS011;8207;52.494;4.654;2023-03-07T04:46:08;4.53;;;0.90;;
16199;SDS011;8207;52.494;4.654;2023-03-07T04:48:35;3.80;;;1.70;;
16199;SDS011;8207;52.494;4.654;2023-03-07T04:51:02;6.83;;;1.33;;
16199;SDS011;8207;52.494;4.654;2023-03-07T04:53:30;2.17;;;0.60;;
16199;SDS011;8207;52.494;4.654;2023-03-07T04:55:57;5.03;;;1.10;;
16199;SDS011;8207;52.494;4.654;2023-03-07T04:58:24;4.10;;;0.90;;
16199;SDS011;8207;52.494;4.654;2023-03-07T05:00:53;8.03;;;1.47;;
16199;SDS011;8207;52.494;4.654;2023-03-07T05:03:21;8.13;;;1.40;;
16199;SDS011;8207;52.494;4.654;2023-03-07T05:05:50;5.47;;;2.13;;
16199;SDS011;8207;52.494;4.654;2023-03-07T05:08:17;8.63;;;1.23;;
16199;SDS011;8207;52.494;4.654;2023-03-07T05:10:44;2.63;;;0.80;;
16199;SDS011;8207;52.494;4.654;2023-03-07T05:13:12;4.10;;;0.90;;
16199;SDS011;8207;52.494;4.654;2023-03-07T05:15:38;5.77;;;0.97;;
16199;SDS011;8207;52.494;4.654;2023-03-07T05:18:07;3.57;;;1.00;;
16199;SDS011;8207;52.494;4.654;2023-03-07T05:20:34;3.80;;;0.73;;
16199;SDS011;8207;52.494;4.654;2023-03-07T05:23:01;5.50;;;1.00;;
16199;SDS011;8207;52.494;4.654;2023-03-07T05:25:28;4.00;;;0.90;;
16199;SDS011;8207;52.494;4.654;2023-03-07T05:27:55;7.83;;;1.90;;
16199;SDS011;8207;52.494;4.654;2023-03-07T05:30:22;5.20;;;0.90;;
16199;SDS011;8207;52.494;4.654;2023-03-07T05:32:49;5.70;;;1.20;;
16199;SDS011;8207;52.494;4.654;2023-03-07T05:35:17;12.80;;;2.63;;
16199;SDS011;8207;52.494;4.654;2023-03-07T05:37:48;3.83;;;1.07;;
16199;SDS011;8207;52.494;4.654;2023-03-07T05:40:15;6.00;;;1.93;;
16199;SDS011;8207;52.494;4.654;2023-03-07T05:42:43;3.27;;;0.90;;
16199;SDS011;8207;52.494;4.654;2023-03-07T05:45:10;6.07;;;1.40;;
16199;SDS011;8207;52.494;4.654;2023-03-07T05:47:37;4.70;;;0.90;;
16199;SDS011;8207;52.494;4.654;2023-03-07T05:50:04;3.77;;;1.63;;
16199;SDS011;8207;52.494;4.654;2023-03-07T05:52:34;5.83;;;0.90;;
16199;SDS011;8207;52.494;4.654;2023-03-07T05:55:01;3.20;;;1.07;;
16199;SDS011;8207;52.494;4.654;2023-03-07T05:57:28;4.57;;;1.20;;
16199;SDS011;8207;52.494;4.654;2023-03-07T05:59:55;3.70;;;1.20;;
16199;SDS011;8207;52.494;4.654;2023-03-07T06:02:22;7.57;;;1.57;;
16199;SDS011;8207;52.494;4.654;2023-03-07T06:04:49;4.23;;;1.50;;
16199;SDS011;8207;52.494;4.654;2023-03-07T06:07:16;3.80;;;0.93;;
16199;SDS011;8207;52.494;4.654;2023-03-07T06:09:44;4.50;;;0.80;;
16199;SDS011;8207;52.494;4.654;2023-03-07T06:12:11;6.77;;;1.07;;
16199;SDS011;8207;52.494;4.654;2023-03-07T06:14:38;4.13;;;0.93;;
16199;SDS011;8207;52.494;4.654;2023-03-07T06:17:05;5.63;;;1.00;;
16199;SDS011;8207;52.494;4.654;2023-03-07T06:19:32;4.90;;;0.90;;
16199;SDS011;8207;52.494;4.654;2023-03-07T06:21:59;5.73;;;1.20;;
16199;SDS011;8207;52.494;4.654;2023-03-07T06:24:26;7.70;;;1.37;;
16199;SDS011;8207;52.494;4.654;2023-03-07T06:26:54;5.67;;;1.20;;
16199;SDS011;8207;52.494;4.654;2023-03-07T06:29:21;4.00;;;1.03;;
16199;SDS011;8207;52.494;4.654;2023-03-07T06:31:48;8.63;;;1.50;;
16199;SDS011;8207;52.494;4.654;2023-03-07T06:34:15;5.07;;;1.00;;
16199;SDS011;8207;52.494;4.654;2023-03-07T06:36:42;11.13;;;1.23;;
16199;SDS011;8207;52.494;4.654;2023-03-07T06:39:09;5.87;;;1.27;;
16199;SDS011;8207;52.494;4.654;2023-03-07T06:41:36;6.03;;;0.90;;
16199;SDS011;8207;52.494;4.654;2023-03-07T06:44:04;2.80;;;1.10;;
16199;SDS011;8207;52.494;4.654;2023-03-07T06:46:31;5.60;;;1.30;;
16199;SDS011;8207;52.494;4.654;2023-03-07T06:48:58;6.33;;;1.80;;
16199;SDS011;8207;52.494;4.654;2023-03-07T06:51:25;5.43;;;0.90;;
16199;SDS011;8207;52.494;4.654;2023-03-07T06:53:52;8.77;;;1.80;;
16199;SDS011;8207;52.494;4.654;2023-03-07T06:56:19;4.00;;;1.77;;
16199;SDS011;8207;52.494;4.654;2023-03-07T06:58:46;4.83;;;1.10;;
16199;SDS011;8207;52.494;4.654;2023-03-07T07:01:17;4.97;;;1.27;;
16199;SDS011;8207;52.494;4.654;2023-03-07T07:03:45;8.17;;;1.23;;
16199;SDS011;8207;52.494;4.654;2023-03-07T07:06:12;8.03;;;1.80;;
16199;SDS011;8207;52.494;4.654;2023-03-07T07:08:39;6.00;;;1.10;;
16199;SDS011;8207;52.494;4.654;2023-03-07T07:11:06;7.33;;;1.73;;
16199;SDS011;8207;52.494;4.654;2023-03-07T07:13:33;8.03;;;1.23;;
16199;SDS011;8207;52.494;4.654;2023-03-07T07:16:03;8.40;;;1.80;;
16199;SDS011;8207;52.494;4.654;2023-03-07T07:18:32;6.27;;;1.60;;
16199;SDS011;8207;52.494;4.654;2023-03-07T07:20:59;2.83;;;1.20;;
16199;SDS011;8207;52.494;4.654;2023-03-07T07:23:26;8.50;;;2.30;;
16199;SDS011;8207;52.494;4.654;2023-03-07T07:28:36;8.83;;;2.80;;
16199;SDS011;8207;52.494;4.654;2023-03-07T07:31:03;10.13;;;2.33;;
16199;SDS011;8207;52.494;4.654;2023-03-07T07:33:31;5.40;;;1.20;;
16199;SDS011;8207;52.494;4.654;2023-03-07T07:35:58;8.80;;;1.90;;
16199;SDS011;8207;52.494;4.654;2023-03-07T07:38:25;5.73;;;1.83;;
16199;SDS011;8207;52.494;4.654;2023-03-07T07:40:52;4.60;;;1.67;;
16199;SDS011;8207;52.494;4.654;2023-03-07T07:43:20;5.40;;;1.10;;
16199;SDS011;8207;52.494;4.654;2023-03-07T07:45:47;6.27;;;1.30;;
16199;SDS011;8207;52.494;4.654;2023-03-07T07:48:14;4.33;;;1.00;;
16199;SDS011;8207;52.494;4.654;2023-03-07T07:50:43;2.80;;;1.30;;
16199;SDS011;8207;52.494;4.654;2023-03-07T07:53:11;9.13;;;0.90;;
16199;SDS011;8207;52.494;4.654;2023-03-07T07:55:38;4.70;;;1.40;;
16199;SDS011;8207;52.494;4.654;2023-03-07T07:58:04;4.30;;;1.87;;
16199;SDS011;8207;52.494;4.654;2023-03-07T08:00:31;4.83;;;1.17;;
16199;SDS011;8207;52.494;4.654;2023-03-07T08:02:58;3.13;;;1.23;;
16199;SDS011;8207;52.494;4.654;2023-03-07T08:05:25;4.80;;;1.03;;
16199;SDS011;8207;52.494;4.654;2023-03-07T08:07:54;8.00;;;1.70;;
16199;SDS011;8207;52.494;4.654;2023-03-07T08:10:21;7.13;;;2.00;;
16199;SDS011;8207;52.494;4.654;2023-03-07T08:12:48;5.10;;;1.70;;
16199;SDS011;8207;52.494;4.654;2023-03-07T08:15:16;7.33;;;1.90;;
16199;SDS011;8207;52.494;4.654;2023-03-07T08:17:45;8.17;;;1.63;;
16199;SDS011;8207;52.494;4.654;2023-03-07T08:20:12;6.43;;;1.47;;
16199;SDS011;8207;52.494;4.654;2023-03-07T08:22:39;9.70;;;1.70;;
16199;SDS011;8207;52.494;4.654;2023-03-07T08:25:15;5.83;;;1.57;;
16199;SDS011;8207;52.494;4.654;2023-03-07T08:27:45;7.70;;;2.10;;
16199;SDS011;8207;52.494;4.654;2023-03-07T08:30:13;5.07;;;1.30;;
16199;SDS011;8207;52.494;4.654;2023-03-07T08:32:40;3.90;;;1.50;;
16199;SDS011;8207;52.494;4.654;2023-03-07T08:35:07;2.60;;;0.90;;
16199;SDS011;8207;52.494;4.654;2023-03-07T08:37:34;6.47;;;1.20;;
16199;SDS011;8207;52.494;4.654;2023-03-07T08:40:01;4.70;;;1.10;;
16199;SDS011;8207;52.494;4.654;2023-03-07T08:42:29;4.47;;;1.20;;
16199;SDS011;8207;52.494;4.654;2023-03-07T08:44:56;2.83;;;1.00;;
16199;SDS011;8207;52.494;4.654;2023-03-07T08:47:23;7.03;;;1.00;;
16199;SDS011;8207;52.494;4.654;2023-03-07T08:49:50;8.00;;;1.50;;
16199;SDS011;8207;52.494;4.654;2023-03-07T08:52:17;5.57;;;1.40;;
16199;SDS011;8207;52.494;4.654;2023-03-07T08:54:44;6.83;;;1.53;;
16199;SDS011;8207;52.494;4.654;2023-03-07T08:57:11;8.03;;;1.23;;
16199;SDS011;8207;52.494;4.654;2023-03-07T08:59:39;7.03;;;1.47;;
16199;SDS011;8207;52.494;4.654;2023-03-07T09:02:06;3.90;;;0.97;;
16199;SDS011;8207;52.494;4.654;2023-03-07T09:04:34;10.43;;;1.47;;
16199;SDS011;8207;52.494;4.654;2023-03-07T09:07:01;8.07;;;1.00;;
16199;SDS011;8207;52.494;4.654;2023-03-07T09:09:29;2.83;;;0.90;;
16199;SDS011;8207;52.494;4.654;2023-03-07T09:11:56;6.07;;;1.33;;
16199;SDS011;8207;52.494;4.654;2023-03-07T09:14:23;6.17;;;0.93;;
16199;SDS011;8207;52.494;4.654;2023-03-07T09:16:51;6.20;;;1.20;;
16199;SDS011;8207;52.494;4.654;2023-03-07T09:19:18;8.13;;;1.77;;
16199;SDS011;8207;52.494;4.654;2023-03-07T09:21:47;7.67;;;1.60;;
16199;SDS011;8207;52.494;4.654;2023-03-07T09:24:14;4.90;;;1.17;;
16199;SDS011;8207;52.494;4.654;2023-03-07T09:26:41;7.27;;;1.30;;
16199;SDS011;8207;52.494;4.654;2023-03-07T09:29:08;7.83;;;1.70;;
16199;SDS011;8207;52.494;4.654;2023-03-07T09:31:35;5.70;;;1.10;;
16199;SDS011;8207;52.494;4.654;2023-03-07T09:34:03;6.03;;;1.40;;
16199;SDS011;8207;52.494;4.654;2023-03-07T09:36:30;10.73;;;1.90;;
16199;SDS011;8207;52.494;4.654;2023-03-07T09:38:57;2.87;;;1.20;;
16199;SDS011;8207;52.494;4.654;2023-03-07T09:41:29;5.50;;;1.53;;
16199;SDS011;8207;52.494;4.654;2023-03-07T09:44:19;7.43;;;1.73;;
16199;SDS011;8207;52.494;4.654;2023-03-07T09:47:00;10.40;;;2.00;;
16199;SDS011;8207;52.494;4.654;2023-03-07T09:49:39;6.50;;;1.83;;
16199;SDS011;8207;52.494;4.654;2023-03-07T09:52:12;8.33;;;3.37;;
16199;SDS011;8207;52.494;4.654;2023-03-07T09:54:43;3.40;;;1.10;;
16199;SDS011;8207;52.494;4.654;2023-03-07T09:57:16;5.37;;;1.83;;
16199;SDS011;8207;52.494;4.654;2023-03-07T09:59:47;6.33;;;2.20;;
16199;SDS011;8207;52.494;4.654;2023-03-07T10:02:16;5.17;;;1.47;;
16199;SDS011;8207;52.494;4.654;2023-03-07T10:04:49;11.13;;;1.20;;
16199;SDS011;8207;52.494;4.654;2023-03-07T10:07:20;4.80;;;1.37;;
16199;SDS011;8207;52.494;4.654;2023-03-07T10:09:49;3.97;;;1.07;;
16199;SDS011;8207;52.494;4.654;2023-03-07T10:15:16;1.93;;;0.90;;
16199;SDS011;8207;52.494;4.654;2023-03-07T10:20:50;3.40;;;0.63;;
16199;SDS011;8207;52.494;4.654;2023-03-07T10:23:24;5.73;;;1.10;;
16199;SDS011;8207;52.494;4.654;2023-03-07T10:26:02;2.47;;;0.73;;
16199;SDS011;8207;52.494;4.654;2023-03-07T10:28:36;2.00;;;0.80;;
16199;SDS011;8207;52.494;4.654;2023-03-07T10:31:11;2.13;;;0.90;;
16199;SDS011;8207;52.494;4.654;2023-03-07T10:33:41;5.33;;;1.77;;
16199;SDS011;8207;52.494;4.654;2023-03-07T10:36:13;8.03;;;1.60;;
16199;SDS011;8207;52.494;4.654;2023-03-07T10:38:47;13.90;;;1.93;;
16199;SDS011;8207;52.494;4.654;2023-03-07T10:41:20;4.97;;;1.20;;
16199;SDS011;8207;52.494;4.654;2023-03-07T10:43:48;7.03;;;1.87;;
16199;SDS011;8207;52.494;4.654;2023-03-07T10:46:17;13.67;;;2.60;;
16199;SDS011;8207;52.494;4.654;2023-03-07T10:48:47;4.20;;;1.30;;
16199;SDS011;8207;52.494;4.654;2023-03-07T10:51:23;4.80;;;1.27;;
16199;SDS011;8207;52.494;4.654;2023-03-07T10:53:58;5.20;;;1.40;;
16199;SDS011;8207;52.494;4.654;2023-03-07T10:56:26;4.80;;;1.37;;
16199;SDS011;8207;52.494;4.654;2023-03-07T10:59:00;3.00;;;1.43;;
16199;SDS011;8207;52.494;4.654;2023-03-07T11:01:28;3.57;;;1.27;;
16199;SDS011;8207;52.494;4.654;2023-03-07T11:03:57;4.40;;;2.07;;
16199;SDS011;8207;52.494;4.654;2023-03-07T11:06:28;4.57;;;1.33;;
16199;SDS011;8207;52.494;4.654;2023-03-07T11:09:06;2.97;;;0.90;;
16199;SDS011;8207;52.494;4.654;2023-03-07T11:11:45;3.63;;;1.13;;
16199;SDS011;8207;52.494;4.654;2023-03-07T11:14:14;2.67;;;1.10;;
16199;SDS011;8207;52.494;4.654;2023-03-07T11:16:46;4.53;;;1.53;;
16199;SDS011;8207;52.494;4.654;2023-03-07T11:22:27;4.83;;;1.70;;
16199;SDS011;8207;52.494;4.654;2023-03-07T11:24:58;4.33;;;1.40;;
16199;SDS011;8207;52.494;4.654;2023-03-07T11:27:37;5.67;;;1.30;;
16199;SDS011;8207;52.494;4.654;2023-03-07T11:30:06;6.33;;;1.80;;
16199;SDS011;8207;52.494;4.654;2023-03-07T11:32:46;4.43;;;1.83;;
16199;SDS011;8207;52.494;4.654;2023-03-07T11:35:18;7.10;;;2.20;;
16199;SDS011;8207;52.494;4.654;2023-03-07T11:37:52;10.87;;;2.20;;
16199;SDS011;8207;52.494;4.654;2023-03-07T11:40:29;6.57;;;1.80;;
16199;SDS011;8207;52.494;4.654;2023-03-07T11:43:02;8.47;;;1.87;;
16199;SDS011;8207;52.494;4.654;2023-03-07T11:45:40;5.63;;;1.93;;
16199;SDS011;8207;52.494;4.654;2023-03-07T11:48:23;5.30;;;2.03;;
16199;SDS011;8207;52.494;4.654;2023-03-07T11:51:00;5.80;;;1.50;;
16199;SDS011;8207;52.494;4.654;2023-03-07T11:53:34;5.20;;;1.37;;
16199;SDS011;8207;52.494;4.654;2023-03-07T11:56:18;3.77;;;1.00;;
16199;SDS011;8207;52.494;4.654;2023-03-07T11:58:55;6.53;;;1.20;;
16199;SDS011;8207;52.494;4.654;2023-03-07T12:01:56;4.83;;;1.30;;
16199;SDS011;8207;52.494;4.654;2023-03-07T12:10:14;2.50;;;1.00;;
16199;SDS011;8207;52.494;4.654;2023-03-07T12:12:57;8.07;;;1.47;;
16199;SDS011;8207;52.494;4.654;2023-03-07T12:15:33;4.63;;;1.90;;
16199;SDS011;8207;52.494;4.654;2023-03-07T12:18:11;5.43;;;2.13;;
16199;SDS011;8207;52.494;4.654;2023-03-07T12:21:00;6.40;;;2.50;;
16199;SDS011;8207;52.494;4.654;2023-03-07T12:23:38;5.17;;;1.47;;
16199;SDS011;8207;52.494;4.654;2023-03-07T12:26:11;8.63;;;3.87;;
16199;SDS011;8207;52.494;4.654;2023-03-07T12:28:43;5.67;;;1.60;;
16199;SDS011;8207;52.494;4.654;2023-03-07T12:31:16;2.40;;;0.70;;
16199;SDS011;8207;52.494;4.654;2023-03-07T12:33:55;2.83;;;0.90;;
16199;SDS011;8207;52.494;4.654;2023-03-07T12:36:29;5.77;;;1.80;;
16199;SDS011;8207;52.494;4.654;2023-03-07T12:39:00;3.53;;;1.47;;
16199;SDS011;8207;52.494;4.654;2023-03-07T12:41:37;3.67;;;1.17;;
16199;SDS011;8207;52.494;4.654;2023-03-07T12:44:11;3.13;;;1.17;;
16199;SDS011;8207;52.494;4.654;2023-03-07T12:46:43;5.10;;;0.87;;
16199;SDS011;8207;52.494;4.654;2023-03-07T12:49:18;5.40;;;1.20;;
16199;SDS011;8207;52.494;4.654;2023-03-07T12:51:51;3.93;;;1.33;;
16199;SDS011;8207;52.494;4.654;2023-03-07T12:54:20;3.43;;;0.90;;
16199;SDS011;8207;52.494;4.654;2023-03-07T12:56:53;1.43;;;0.87;;
16199;SDS011;8207;52.494;4.654;2023-03-07T12:59:25;3.47;;;0.83;;
16199;SDS011;8207;52.494;4.654;2023-03-07T13:02:00;2.07;;;0.80;;
16199;SDS011;8207;52.494;4.654;2023-03-07T13:04:30;2.40;;;1.27;;
16199;SDS011;8207;52.494;4.654;2023-03-07T13:07:00;1.33;;;0.60;;
16199;SDS011;8207;52.494;4.654;2023-03-07T13:09:33;2.23;;;0.53;;
16199;SDS011;8207;52.494;4.654;2023-03-07T13:12:08;4.37;;;1.23;;
16199;SDS011;8207;52.494;4.654;2023-03-07T13:14:51;5.40;;;1.80;;
16199;SDS011;8207;52.494;4.654;2023-03-07T13:20:37;8.17;;;2.40;;
16199;SDS011;8207;52.494;4.654;2023-03-07T13:23:19;6.47;;;1.93;;
16199;SDS011;8207;52.494;4.654;2023-03-07T13:25:53;4.63;;;1.17;;
16199;SDS011;8207;52.494;4.654;2023-03-07T13:31:24;6.80;;;1.30;;
16199;SDS011;8207;52.494;4.654;2023-03-07T13:55:21;5.47;;;1.37;;
16199;SDS011;8207;52.494;4.654;2023-03-07T13:57:57;5.53;;;2.00;;
16199;SDS011;8207;52.494;4.654;2023-03-07T14:00:32;8.37;;;2.07;;
16199;SDS011;8207;52.494;4.654;2023-03-07T14:03:22;13.53;;;1.80;;
16199;SDS011;8207;52.494;4.654;2023-03-07T14:05:53;9.20;;;1.97;;
16199;SDS011;8207;52.494;4.654;2023-03-07T14:08:22;2.87;;;0.87;;
16199;SDS011;8207;52.494;4.654;2023-03-07T14:10:53;3.43;;;0.83;;
16199;SDS011;8207;52.494;4.654;2023-03-07T14:16:32;2.33;;;0.70;;
16199;SDS011;8207;52.494;4.654;2023-03-07T14:19:17;4.57;;;1.20;;
16199;SDS011;8207;52.494;4.654;2023-03-07T14:21:53;1.73;;;0.70;;
16199;SDS011;8207;52.494;4.654;2023-03-07T14:24:34;6.00;;;1.03;;
16199;SDS011;8207;52.494;4.654;2023-03-07T14:27:15;4.37;;;1.00;;
16199;SDS011;8207;52.494;4.654;2023-03-07T14:29:48;5.50;;;1.10;;
16199;SDS011;8207;52.494;4.654;2023-03-07T14:32:19;1.77;;;0.80;;
16199;SDS011;8207;52.494;4.654;2023-03-07T14:34:48;3.67;;;1.23;;
16199;SDS011;8207;52.494;4.654;2023-03-07T14:37:17;3.90;;;1.03;;
16199;SDS011;8207;52.494;4.654;2023-03-07T14:39:53;3.50;;;1.30;;
16199;SDS011;8207;52.494;4.654;2023-03-07T14:42:42;2.37;;;1.50;;
16199;SDS011;8207;52.494;4.654;2023-03-07T14:45:20;3.80;;;0.90;;
16199;SDS011;8207;52.494;4.654;2023-03-07T14:47:56;1.70;;;0.70;;
16199;SDS011;8207;52.494;4.654;2023-03-07T14:50:50;3.33;;;0.63;;
16199;SDS011;8207;52.494;4.654;2023-03-07T14:53:18;3.57;;;1.00;;
16199;SDS011;8207;52.494;4.654;2023-03-07T14:55:47;3.90;;;1.00;;
16199;SDS011;8207;52.494;4.654;2023-03-07T14:58:16;6.23;;;0.80;;
16199;SDS011;8207;52.494;4.654;2023-03-07T15:00:45;6.60;;;2.87;;
16199;SDS011;8207;52.494;4.654;2023-03-07T15:03:22;15.77;;;6.67;;
16199;SDS011;8207;52.494;4.654;2023-03-07T15:05:51;9.87;;;3.73;;
16199;SDS011;8207;52.494;4.654;2023-03-07T15:08:22;15.07;;;7.87;;
16199;SDS011;8207;52.494;4.654;2023-03-07T15:10:51;9.53;;;4.93;;
16199;SDS011;8207;52.494;4.654;2023-03-07T15:13:22;8.90;;;5.07;;
16199;SDS011;8207;52.494;4.654;2023-03-07T15:15:55;11.97;;;5.50;;
16199;SDS011;8207;52.494;4.654;2023-03-07T15:18:26;11.60;;;5.23;;
16199;SDS011;8207;52.494;4.654;2023-03-07T15:20:59;9.83;;;2.33;;
16199;SDS011;8207;52.494;4.654;2023-03-07T15:23:29;5.00;;;3.10;;
16199;SDS011;8207;52.494;4.654;2023-03-07T15:25:59;6.70;;;1.60;;
16199;SDS011;8207;52.494;4.654;2023-03-07T15:28:30;1.80;;;1.00;;
16199;SDS011;8207;52.494;4.654;2023-03-07T15:30:59;4.73;;;1.30;;
16199;SDS011;8207;52.494;4.654;2023-03-07T15:33:27;4.83;;;1.40;;
16199;SDS011;8207;52.494;4.654;2023-03-07T15:36:16;1.63;;;1.20;;
16199;SDS011;8207;52.494;4.654;2023-03-07T15:38:45;1.67;;;0.80;;
16199;SDS011;8207;52.494;4.654;2023-03-07T15:41:31;5.77;;;1.90;;
16199;SDS011;8207;52.494;4.654;2023-03-07T15:44:04;4.73;;;0.80;;
16199;SDS011;8207;52.494;4.654;2023-03-07T15:46:41;5.47;;;1.00;;
16199;SDS011;8207;52.494;4.654;2023-03-07T15:49:15;6.20;;;1.73;;
16199;SDS011;8207;52.494;4.654;2023-03-07T15:51:48;4.67;;;1.23;;
16199;SDS011;8207;52.494;4.654;2023-03-07T15:54:19;2.60;;;0.70;;
16199;SDS011;8207;52.494;4.654;2023-03-07T15:56:59;4.73;;;0.90;;
16199;SDS011;8207;52.494;4.654;2023-03-07T15:59:29;2.47;;;0.80;;
16199;SDS011;8207;52.494;4.654;2023-03-07T16:04:58;1.17;;;0.70;;
16199;SDS011;8207;52.494;4.654;2023-03-07T16:07:27;2.13;;;0.80;;
16199;SDS011;8207;52.494;4.654;2023-03-07T16:09:54;3.67;;;1.67;;
16199;SDS011;8207;52.494;4.654;2023-03-07T16:12:22;2.80;;;0.93;;